map of TMJ home
TMJ - Airport
Location
City:  Termez, Surxondaryo, Uzbekistan
Name:Termez Airport
ICAO:UTST
IATA:TMJ

Details
Type:Airport (Aerodrome, Airfield)
Use:Public/Civil
Latitude:3717'12"N (37.286667)
Longitude:6718'36"E (67.310000)
Elevation:1027 ft (313 m)
Variation:4.19E (WMM2015 magnetic declination)
0.06 annual change
Runways:1
Longest:9843 × 138 ft (3000 × 42 m), paved

Time
Time Zone:UTC+5
Local Time:

Weather
METAR:UTST 171630Z 02006KT 9999 FEW060CB 08/04 Q1028 R88/CLRD70 NOSIG
TAF:UTST 171100Z 1712/1812 VRB06KT 6000 SCT050CB SCT100
TEMPO 1712/1722 26012G22KT 3000 -SHRA BR SCT010 BKN040CB BKN100

Related Locations
Nearby:
Farthest:IPC: 11708 mi / 18842 km
Easter Island (Isla de Pascua, Rapa Nui) [Mataveri Intl], VS, CL

Find:

   beyond  
but within

Other Information
Maps:
NOTAMs:
Links:
Sources:

  
  • flag of Uzbekistan
  

Sectional Chart

Flight Planning
at skyvector.com

Satellite Image

Google Maps Satellite view

 

Copyright © 2004-2018 Karl L. Swartz. All rights reserved.
The Great Circle Mapper name and logo are trademarks of the Great Circle Mapper.
All other trademarks mentioned herein belong to their respective owners.
Please see credits for attibutions and further copyright information.

  Follow gcmap on Facebook Follow gcmap on Twitter Follow gcmap on Google+ GCmap on LinkedIn

hCard Microformat

Geo Microformat